Time;durP1;ratioP1;P1;durP2;ratioP2;P2;SDS_P1;SDS_P2;PMS_P1;PMS_P2;Temp;Humidity;BMP_temperature;BMP_pressure;BME280_temperature;BME280_humidity;BME280_pressure;Samples;Min_cycle;Max_cycle;Signal;HPM_P1;HPM_P2
2023/03/17 00:00:36;;;;;;;21.10;7.50;;;;;;;-1.60;90.66;100685.33;108911;1260;57398;-70
2023/03/17 00:03:30;;;;;;;20.30;8.00;;;;;;;-1.46;90.34;100693.09;109035;1259;61636;-72
2023/03/17 00:06:29;;;;;;;20.40;8.40;;;;;;;-1.37;89.89;100690.16;108242;1261;1002469;-72
2023/03/17 00:09:19;;;;;;;27.10;10.70;;;;;;;-1.29;89.56;100688.61;108975;1260;66446;-73
2023/03/17 00:12:11;;;;;;;26.30;9.10;;;;;;;-1.21;89.54;100690.39;108905;1259;72734;-72
2023/03/17 00:14:58;;;;;;;18.00;6.30;;;;;;;-1.13;89.59;100680.31;108219;1259;1002890;-72
2023/03/17 00:17:48;;;;;;;20.40;6.90;;;;;;;-1.06;89.18;100688.51;108952;1259;61356;-73
2023/03/17 00:20:36;;;;;;;29.20;8.50;;;;;;;-1.00;88.79;100686.49;109068;1259;73099;-70
2023/03/17 00:23:24;;;;;;;27.80;10.50;;;;;;;-0.97;88.69;100683.30;108901;1261;69273;-71
2023/03/17 00:26:11;;;;;;;18.90;6.50;;;;;;;-0.95;88.64;100681.14;108995;1260;71198;-70
2023/03/17 00:28:59;;;;;;;16.70;6.30;;;;;;;-0.93;88.39;100682.69;108933;1260;58565;-71
2023/03/17 00:31:46;;;;;;;21.10;8.40;;;;;;;-0.91;88.13;100679.85;108894;1262;60256;-71
2023/03/17 00:34:33;;;;;;;18.00;6.70;;;;;;;-0.89;88.03;100678.27;108818;1263;73969;-70
2023/03/17 00:37:21;;;;;;;18.90;7.70;;;;;;;-0.86;87.93;100677.67;108762;1263;66577;-70
2023/03/17 00:40:21;;;;;;;20.70;7.60;;;;;;;-0.83;88.04;100677.77;108048;1264;1002143;-72
2023/03/17 00:43:08;;;;;;;16.90;6.60;;;;;;;-0.79;88.00;100678.72;108769;1262;57258;-70
2023/03/17 00:45:58;;;;;;;26.60;10.30;;;;;;;-0.75;87.76;100676.75;108911;1262;58997;-70
2023/03/17 00:48:45;;;;;;;18.90;6.40;;;;;;;-0.73;87.71;100680.02;108068;1262;1002271;-70
2023/03/17 00:51:32;;;;;;;22.20;8.40;;;;;;;-0.71;87.55;100682.94;108825;1263;67808;-70
2023/03/17 00:54:20;;;;;;;23.40;9.00;;;;;;;-0.74;87.20;100677.25;108641;1263;72804;-70
2023/03/17 00:57:09;;;;;;;19.40;6.70;;;;;;;-0.69;87.23;100677.48;108868;1263;58886;-72
2023/03/17 00:59:56;;;;;;;17.30;5.80;;;;;;;-0.68;87.13;100682.52;108819;1263;60068;-70
2023/03/17 01:02:44;;;;;;;17.60;6.60;;;;;;;-0.67;86.92;100682.67;109003;1259;71652;-70
2023/03/17 01:05:30;;;;;;;17.10;5.50;;;;;;;-0.66;86.90;100681.44;108968;1260;66540;-70
2023/03/17 01:08:17;;;;;;;16.10;5.60;;;;;;;-0.65;86.87;100681.06;108967;1260;71789;-71
2023/03/17 01:11:04;;;;;;;18.70;6.30;;;;;;;-0.62;87.02;100675.77;108876;1259;57411;-72
2023/03/17 01:13:51;;;;;;;14.40;4.70;;;;;;;-0.61;87.00;100672.61;109063;1260;60116;-69
2023/03/17 01:16:38;;;;;;;16.00;5.20;;;;;;;-0.60;86.91;100665.45;108993;1263;72966;-72
2023/03/17 01:19:24;;;;;;;14.50;4.50;;;;;;;-0.58;86.97;100661.21;108962;1259;66728;-72
2023/03/17 01:22:10;;;;;;;18.40;4.70;;;;;;;-0.60;86.97;100665.44;108871;1260;74065;-70
2023/03/17 01:24:57;;;;;;;11.20;3.80;;;;;;;-0.57;87.11;100663.45;108987;1260;57446;-70
2023/03/17 01:27:45;;;;;;;13.90;3.60;;;;;;;-0.53;87.01;100665.29;108994;1260;61161;-70
2023/03/17 01:30:37;;;;;;;11.40;3.90;;;;;;;-0.52;86.84;100656.54;109015;1260;73047;-71
2023/03/17 01:33:24;;;;;;;13.10;3.50;;;;;;;-0.49;86.82;100658.23;108987;1259;67676;-70
2023/03/17 01:36:10;;;;;;;13.00;4.30;;;;;;;-0.50;86.68;100653.37;108991;1259;72495;-69
2023/03/17 01:38:57;;;;;;;12.50;3.60;;;;;;;-0.54;86.75;100647.16;109072;1259;57487;-71
2023/03/17 01:41:45;;;;;;;12.00;3.60;;;;;;;-0.56;86.90;100651.42;109043;1259;59999;-68
2023/03/17 01:44:32;;;;;;;11.50;3.60;;;;;;;-0.60;86.96;100649.40;109062;1260;74062;-70
2023/03/17 01:47:18;;;;;;;12.40;3.40;;;;;;;-0.61;87.15;100654.30;108975;1260;69159;-71
2023/03/17 01:50:08;;;;;;;14.70;3.90;;;;;;;-0.63;87.31;100647.92;108969;1259;72923;-73
2023/03/17 01:52:55;;;;;;;12.80;3.60;;;;;;;-0.64;87.34;100643.94;109021;1260;58665;-72
2023/03/17 01:55:44;;;;;;;11.70;3.90;;;;;;;-0.64;87.61;100643.39;109039;1259;58865;-72
2023/03/17 01:58:32;;;;;;;13.70;3.90;;;;;;;-0.64;87.53;100638.52;108994;1259;73874;-72
2023/03/17 02:01:29;;;;;;;14.70;3.40;;;;;;;-0.63;87.43;100635.72;108986;1259;67694;-72
2023/03/17 02:04:18;;;;;;;13.00;3.70;;;;;;;-0.64;87.72;100629.80;108221;1260;1002931;-72
2023/03/17 02:07:07;;;;;;;10.50;3.30;;;;;;;-0.66;87.66;100624.61;108971;1260;58450;-72
2023/03/17 02:09:55;;;;;;;9.90;2.60;;;;;;;-0.67;87.83;100628.30;108982;1259;60014;-70
2023/03/17 02:12:44;;;;;;;12.40;3.50;;;;;;;-0.65;88.06;100631.59;108971;1260;73015;-72
2023/03/17 02:15:43;;;;;;;9.90;3.10;;;;;;;-0.64;87.85;100626.83;109011;1260;68622;-70
2023/03/17 02:18:31;;;;;;;9.20;3.10;;;;;;;-0.62;88.19;100626.08;108244;1260;1002217;-70
2023/03/17 02:21:34;;;;;;;10.90;2.70;;;;;;;-0.59;88.42;100623.05;108287;1259;1002285;-71
2023/03/17 02:24:30;;;;;;;12.00;2.90;;;;;;;-0.60;88.41;100614.88;109015;1260;61045;-71
2023/03/17 02:27:23;;;;;;;11.40;3.40;;;;;;;-0.60;88.82;100617.33;108957;1260;72501;-72
2023/03/17 02:30:18;;;;;;;12.80;2.80;;;;;;;-0.61;89.33;100611.60;109053;1259;68887;-71
2023/03/17 02:33:04;;;;;;;9.80;3.10;;;;;;;-0.62;89.73;100611.98;109030;1259;72551;-73
2023/03/17 02:35:51;;;;;;;12.70;2.90;;;;;;;-0.61;89.56;100611.95;109018;1259;58730;-71
2023/03/17 02:38:38;;;;;;;12.70;2.80;;;;;;;-0.59;89.43;100609.98;109008;1260;61133;-72
2023/03/17 02:41:24;;;;;;;10.00;3.30;;;;;;;-0.56;89.80;100609.06;108993;1260;72811;-70
2023/03/17 02:44:10;;;;;;;13.20;2.90;;;;;;;-0.57;89.87;100609.94;109004;1260;68916;-70
2023/03/17 02:46:58;;;;;;;6.90;2.30;;;;;;;-0.61;89.95;100606.54;108201;1263;1002884;-71
2023/03/17 02:49:44;;;;;;;11.10;2.50;;;;;;;-0.57;89.93;100613.96;109035;1260;57356;-72
2023/03/17 02:52:31;;;;;;;9.00;2.40;;;;;;;-0.58;90.10;100610.32;109039;1259;61267;-70
2023/03/17 02:55:17;;;;;;;8.60;2.30;;;;;;;-0.58;90.69;100609.63;109045;1260;73982;-70
2023/03/17 02:58:04;;;;;;;13.30;2.80;;;;;;;-0.59;90.74;100605.46;109038;1260;66533;-73
2023/03/17 03:00:50;;;;;;;9.20;2.60;;;;;;;-0.57;90.78;100606.46;108992;1260;71167;-72
2023/03/17 03:03:37;;;;;;;12.20;3.00;;;;;;;-0.55;90.68;100606.05;109026;1259;57207;-72
2023/03/17 03:06:24;;;;;;;10.00;2.50;;;;;;;-0.51;90.51;100607.89;109099;1260;61290;-73
2023/03/17 03:09:11;;;;;;;11.10;2.60;;;;;;;-0.50;90.69;100605.25;109084;1259;74045;-72
2023/03/17 03:11:57;;;;;;;7.60;2.40;;;;;;;-0.48;90.44;100600.34;109077;1259;68687;-72
2023/03/17 03:14:43;;;;;;;9.70;2.50;;;;;;;-0.50;90.53;100603.33;108277;1259;1002770;-72
2023/03/17 03:17:29;;;;;;;13.50;2.70;;;;;;;-0.51;90.25;100609.80;109038;1259;59711;-73
2023/03/17 03:20:17;;;;;;;14.90;3.30;;;;;;;-0.52;90.42;100609.81;108951;1260;60353;-73
2023/03/17 03:23:03;;;;;;;7.40;2.10;;;;;;;-0.51;90.31;100616.77;109038;1259;72108;-73
2023/03/17 03:25:50;;;;;;;10.00;2.80;;;;;;;-0.51;90.31;100618.35;109096;1259;68842;-71
2023/03/17 03:28:36;;;;;;;9.90;2.60;;;;;;;-0.47;90.06;100613.55;109091;1259;72752;-70
2023/03/17 03:31:23;;;;;;;12.70;3.10;;;;;;;-0.45;90.14;100607.93;109039;1259;57631;-70
2023/03/17 03:34:10;;;;;;;7.30;2.60;;;;;;;-0.46;90.01;100612.30;109023;1259;59112;-71
2023/03/17 03:36:57;;;;;;;9.10;2.60;;;;;;;-0.45;89.94;100610.88;109064;1259;73515;-71
2023/03/17 03:39:44;;;;;;;8.40;3.00;;;;;;;-0.43;89.93;100611.55;108332;1259;1002447;-72
2023/03/17 03:42:31;;;;;;;11.00;2.80;;;;;;;-0.43;90.06;100614.14;109068;1259;72332;-71
2023/03/17 03:45:17;;;;;;;9.60;2.40;;;;;;;-0.41;89.81;100611.48;109103;1259;58737;-70
2023/03/17 03:48:04;;;;;;;8.60;2.50;;;;;;;-0.41;89.78;100614.78;109013;1263;58832;-71
2023/03/17 03:50:59;;;;;;;10.00;2.90;;;;;;;-0.38;89.75;100614.20;109083;1259;71538;-72
2023/03/17 03:53:47;;;;;;;11.40;2.60;;;;;;;-0.39;89.88;100613.18;108994;1259;67819;-71
2023/03/17 03:56:33;;;;;;;8.70;2.90;;;;;;;-0.39;89.94;100618.08;109054;1259;71497;-71
2023/03/17 03:59:19;;;;;;;7.90;2.90;;;;;;;-0.38;89.89;100615.79;109023;1259;58617;-71
2023/03/17 04:02:06;;;;;;;9.50;2.90;;;;;;;-0.37;89.92;100616.10;109058;1260;58872;-70
2023/03/17 04:04:56;;;;;;;9.20;2.80;;;;;;;-0.36;90.17;100621.48;109071;1260;74046;-72
2023/03/17 04:07:42;;;;;;;10.60;3.30;;;;;;;-0.34;90.13;100620.23;109046;1259;67589;-71
2023/03/17 04:10:30;;;;;;;10.00;3.20;;;;;;;-0.33;90.22;100621.94;109072;1260;72580;-72
2023/03/17 04:13:17;;;;;;;12.10;4.10;;;;;;;-0.32;90.34;100606.75;109009;1260;58446;-73
2023/03/17 04:16:05;;;;;;;9.60;3.20;;;;;;;-0.32;90.50;100597.34;109056;1259;59012;-69
2023/03/17 04:18:51;;;;;;;10.60;3.20;;;;;;;-0.32;90.74;100599.25;109030;1260;72807;-69
2023/03/17 04:21:38;;;;;;;12.50;3.80;;;;;;;-0.35;90.64;100586.06;109108;1260;67772;-69
2023/03/17 04:24:26;;;;;;;12.10;3.80;;;;;;;-0.30;90.71;100595.73;109089;1259;71381;-70
2023/03/17 04:27:14;;;;;;;11.20;3.50;;;;;;;-0.29;90.47;100597.77;109066;1260;57386;-73
2023/03/17 04:30:01;;;;;;;10.40;3.60;;;;;;;-0.28;90.54;100595.84;109101;1259;60291;-69
2023/03/17 04:32:47;;;;;;;10.90;3.70;;;;;;;-0.26;90.30;100607.65;109095;1260;74085;-71
2023/03/17 04:35:34;;;;;;;12.10;3.60;;;;;;;-0.24;90.46;100609.52;109076;1260;69054;-72
2023/03/17 04:38:20;;;;;;;9.50;3.20;;;;;;;-0.22;90.55;100596.56;109028;1260;71174;-71
2023/03/17 04:41:06;;;;;;;11.10;3.60;;;;;;;-0.20;90.50;100585.35;108944;1259;57323;-72
2023/03/17 04:43:53;;;;;;;9.80;3.10;;;;;;;-0.19;90.69;100582.02;109084;1259;59199;-70
2023/03/17 04:46:39;;;;;;;12.20;4.20;;;;;;;-0.19;90.76;100579.04;109104;1259;73170;-71
2023/03/17 04:49:26;;;;;;;12.70;4.60;;;;;;;-0.20;90.97;100572.79;108936;1260;68947;-72
2023/03/17 04:52:12;;;;;;;14.10;5.00;;;;;;;-0.18;90.71;100571.86;108972;1259;71461;-73
2023/03/17 04:54:58;;;;;;;12.60;4.90;;;;;;;-0.15;90.68;100576.16;108966;1259;58771;-73
2023/03/17 04:57:45;;;;;;;13.40;5.10;;;;;;;-0.14;90.97;100578.39;108982;1259;60022;-73
2023/03/17 05:00:37;;;;;;;14.80;5.40;;;;;;;-0.12;91.03;100579.22;109040;1259;71438;-76
2023/03/17 05:03:24;;;;;;;12.70;5.30;;;;;;;-0.10;91.55;100576.36;109032;1260;67673;-75
2023/03/17 05:06:15;;;;;;;16.70;6.30;;;;;;;-0.07;92.00;100569.86;108991;1259;73041;-73
2023/03/17 05:09:01;;;;;;;14.20;6.00;;;;;;;-0.06;91.93;100567.71;108971;1259;58584;-71
2023/03/17 05:11:47;;;;;;;18.10;7.40;;;;;;;-0.04;91.92;100563.14;109024;1259;58838;-71
2023/03/17 05:14:36;;;;;;;15.00;7.00;;;;;;;-0.02;91.89;100561.35;109068;1259;73009;-71
2023/03/17 05:17:23;;;;;;;13.10;6.30;;;;;;;-0.01;91.95;100568.48;108790;1262;66357;-72
2023/03/17 05:20:11;;;;;;;15.70;6.80;;;;;;;0.02;91.93;100568.58;108746;1262;72742;-71
2023/03/17 05:22:57;;;;;;;17.50;6.60;;;;;;;0.05;91.78;100571.46;108872;1262;57364;-71
2023/03/17 05:25:44;;;;;;;16.20;6.50;;;;;;;0.09;91.87;100576.77;108769;1263;60355;-73
2023/03/17 05:28:31;;;;;;;21.80;7.30;;;;;;;0.10;91.92;100571.85;108729;1263;72998;-72
2023/03/17 05:31:18;;;;;;;18.10;7.80;;;;;;;0.12;92.08;100569.55;108791;1263;68845;-72
2023/03/17 05:34:04;;;;;;;18.50;7.60;;;;;;;0.13;92.18;100571.24;108768;1262;70406;-72
2023/03/17 05:36:50;;;;;;;16.80;6.90;;;;;;;0.18;92.16;100576.19;108835;1262;59709;-72
2023/03/17 05:39:39;;;;;;;17.60;8.00;;;;;;;0.20;92.64;100578.58;108861;1262;61318;-71
2023/03/17 05:42:26;;;;;;;15.80;8.20;;;;;;;0.23;92.45;100581.63;108784;1263;74099;-72
2023/03/17 05:45:12;;;;;;;17.40;7.40;;;;;;;0.25;92.59;100579.30;108086;1262;1002126;-70
2023/03/17 05:47:58;;;;;;;18.40;8.50;;;;;;;0.29;92.44;100573.64;108942;1259;71214;-70
2023/03/17 05:50:46;;;;;;;18.80;8.90;;;;;;;0.33;92.25;100571.95;108982;1259;57293;-73
2023/03/17 05:53:32;;;;;;;19.10;9.40;;;;;;;0.38;92.06;100562.73;108990;1260;60083;-72
2023/03/17 05:56:20;;;;;;;24.50;8.90;;;;;;;0.42;91.97;100561.22;109020;1259;72852;-74
2023/03/17 05:59:07;;;;;;;20.30;9.80;;;;;;;0.45;92.02;100566.54;108962;1259;66460;-72
2023/03/17 06:01:53;;;;;;;16.20;8.50;;;;;;;0.50;91.83;100567.28;108979;1259;71423;-74
2023/03/17 06:04:40;;;;;;;18.40;9.20;;;;;;;0.53;91.70;100559.52;108980;1260;58926;-74
2023/03/17 06:07:27;;;;;;;19.50;9.80;;;;;;;0.59;91.63;100556.54;109001;1260;59310;-72
2023/03/17 06:10:27;;;;;;;21.40;10.30;;;;;;;0.66;91.35;100557.05;109020;1259;71561;-72
2023/03/17 06:13:14;;;;;;;17.10;8.90;;;;;;;0.70;91.08;100551.69;109035;1260;65931;-71
2023/03/17 06:16:01;;;;;;;22.00;10.40;;;;;;;0.80;90.72;100552.45;108964;1260;73007;-74
2023/03/17 06:18:48;;;;;;;23.30;10.20;;;;;;;0.93;90.27;100549.63;108972;1260;57415;-70
2023/03/17 06:21:34;;;;;;;21.20;10.40;;;;;;;1.05;89.75;100549.28;108981;1260;61326;-70
2023/03/17 06:24:21;;;;;;;20.80;10.10;;;;;;;1.16;89.13;100546.84;108969;1260;72839;-67
2023/03/17 06:27:09;;;;;;;19.70;9.80;;;;;;;1.28;88.35;100549.94;108961;1260;67939;-72
2023/03/17 06:29:56;;;;;;;18.40;9.80;;;;;;;1.37;87.09;100551.93;108998;1260;72565;-72
2023/03/17 06:32:42;;;;;;;21.20;10.10;;;;;;;1.51;86.67;100550.45;108956;1260;57317;-73
2023/03/17 06:35:30;;;;;;;21.40;9.10;;;;;;;1.65;85.71;100550.87;109004;1259;60103;-72
2023/03/17 06:38:17;;;;;;;19.40;9.70;;;;;;;1.74;84.85;100553.92;108193;1260;1002603;-74
2023/03/17 06:41:04;;;;;;;17.30;9.50;;;;;;;1.78;84.28;100555.32;108732;1263;67833;-69
2023/03/17 06:43:50;;;;;;;22.30;10.40;;;;;;;1.85;83.84;100558.07;108717;1264;71047;-72
2023/03/17 06:46:38;;;;;;;19.00;9.70;;;;;;;1.88;83.46;100562.55;108740;1264;57507;-74
2023/03/17 06:49:25;;;;;;;22.90;10.10;;;;;;;1.86;83.16;100564.69;108596;1264;61279;-71
2023/03/17 06:52:12;;;;;;;20.30;9.40;;;;;;;1.83;83.08;100562.34;108705;1264;71942;-73
2023/03/17 06:54:58;;;;;;;21.50;10.90;;;;;;;1.82;82.77;100566.41;108735;1264;69147;-73
2023/03/17 06:57:45;;;;;;;20.40;10.50;;;;;;;1.82;82.84;100565.70;108718;1263;71418;-72
2023/03/17 07:00:32;;;;;;;17.90;8.20;;;;;;;1.83;82.79;100570.75;108739;1264;58696;-74
2023/03/17 07:03:21;;;;;;;20.40;9.40;;;;;;;1.85;82.42;100575.56;108662;1263;60222;-74
2023/03/17 07:06:07;;;;;;;19.10;9.80;;;;;;;1.91;82.42;100576.43;108694;1263;71883;-72
2023/03/17 07:08:54;;;;;;;17.70;9.10;;;;;;;1.92;82.42;100567.11;108743;1263;67919;-74
2023/03/17 07:11:40;;;;;;;24.10;11.20;;;;;;;1.97;82.30;100579.20;108752;1260;73554;-75
2023/03/17 07:14:26;;;;;;;23.40;11.40;;;;;;;1.99;82.36;100570.90;108942;1259;58402;-74
2023/03/17 07:17:15;;;;;;;22.90;12.00;;;;;;;1.95;82.22;100577.88;108973;1259;61002;-75
2023/03/17 07:20:05;;;;;;;23.70;10.80;;;;;;;1.78;82.92;100571.42;109009;1259;74203;-76
2023/03/17 07:22:51;;;;;;;18.10;9.70;;;;;;;1.70;83.43;100570.11;108996;1260;67714;-74
2023/03/17 07:25:39;;;;;;;19.50;10.70;;;;;;;1.63;83.83;100563.88;109058;1259;71395;-72
2023/03/17 07:28:26;;;;;;;22.90;11.90;;;;;;;1.61;84.09;100561.48;108913;1259;58548;-72
2023/03/17 07:31:13;;;;;;;22.50;10.90;;;;;;;1.67;84.18;100560.93;109078;1260;60304;-73
2023/03/17 07:33:59;;;;;;;22.10;11.40;;;;;;;1.73;84.05;100552.36;108956;1259;71567;-73
2023/03/17 07:36:45;;;;;;;23.10;12.10;;;;;;;1.74;83.74;100544.47;108187;1260;1002442;-74
2023/03/17 07:39:32;;;;;;;24.30;12.00;;;;;;;1.76;83.81;100549.10;109009;1259;71088;-71
2023/03/17 07:42:19;;;;;;;19.90;11.30;;;;;;;1.76;84.03;100544.90;109005;1260;57433;-71
2023/03/17 07:45:06;;;;;;;21.00;11.40;;;;;;;1.85;84.09;100539.86;108931;1260;58725;-73
2023/03/17 07:47:53;;;;;;;20.60;9.30;;;;;;;1.94;83.51;100543.61;108223;1260;1002220;-69
2023/03/17 07:50:41;;;;;;;20.80;11.20;;;;;;;1.93;83.10;100541.88;108878;1259;66849;-71
2023/03/17 07:53:28;;;;;;;20.90;10.20;;;;;;;1.99;82.84;100542.91;108965;1260;71895;-73
2023/03/17 07:56:16;;;;;;;19.90;10.00;;;;;;;2.05;82.61;100543.92;109003;1260;58499;-72
2023/03/17 07:59:03;;;;;;;19.90;9.60;;;;;;;2.17;82.18;100544.90;108977;1259;60276;-74
2023/03/17 08:01:50;;;;;;;18.00;8.70;;;;;;;2.32;81.77;100535.09;108984;1260;74123;-73
2023/03/17 08:04:38;;;;;;;19.60;10.20;;;;;;;2.49;80.97;100532.21;109074;1260;65959;-73
2023/03/17 08:07:25;;;;;;;21.50;10.40;;;;;;;2.84;79.33;100532.13;109026;1259;73497;-74
2023/03/17 08:10:13;;;;;;;19.70;10.70;;;;;;;3.32;77.25;100528.48;108884;1260;59696;-71
2023/03/17 08:13:00;;;;;;;19.90;10.70;;;;;;;3.73;75.04;100521.23;109036;1260;59046;-71
2023/03/17 08:15:47;;;;;;;21.10;9.20;;;;;;;4.08;73.69;100517.29;109005;1259;73469;-74
2023/03/17 08:18:33;;;;;;;21.40;10.40;;;;;;;4.35;71.68;100509.61;109035;1260;67641;-72
2023/03/17 08:21:20;;;;;;;19.50;10.80;;;;;;;4.73;70.12;100504.38;108964;1259;72698;-71
2023/03/17 08:24:07;;;;;;;20.30;10.60;;;;;;;5.10;67.71;100503.33;108975;1259;57337;-71
2023/03/17 08:26:53;;;;;;;19.50;9.10;;;;;;;5.70;65.21;100494.41;109067;1259;60274;-73
2023/03/17 08:29:39;;;;;;;16.60;9.00;;;;;;;5.88;63.90;100491.55;109008;1260;73053;-74
2023/03/17 08:32:26;;;;;;;19.50;9.30;;;;;;;5.97;63.52;100486.55;108957;1259;68826;-74
2023/03/17 08:35:16;;;;;;;17.70;9.30;;;;;;;6.08;62.77;100491.81;109045;1259;72518;-74
2023/03/17 08:38:03;;;;;;;21.30;10.40;;;;;;;5.79;62.49;100485.48;109032;1260;57307;-72
2023/03/17 08:40:49;;;;;;;18.70;10.50;;;;;;;5.49;62.99;100489.85;109036;1259;59044;-73
2023/03/17 08:43:37;;;;;;;18.60;9.80;;;;;;;5.34;64.42;100486.34;108998;1260;73096;-73
2023/03/17 08:46:29;;;;;;;18.80;10.60;;;;;;;5.57;64.77;100483.78;108904;1260;67943;-73
2023/03/17 08:49:15;;;;;;;18.70;9.60;;;;;;;5.85;63.22;100473.07;108997;1259;72614;-73
2023/03/17 08:52:02;;;;;;;18.80;9.60;;;;;;;6.09;61.96;100466.57;108994;1259;57464;-75
2023/03/17 08:54:49;;;;;;;16.50;9.40;;;;;;;6.43;60.65;100462.65;109030;1260;60309;-71
2023/03/17 08:57:35;;;;;;;17.90;9.90;;;;;;;6.94;58.02;100452.43;109039;1259;72899;-74
2023/03/17 09:00:22;;;;;;;16.10;9.40;;;;;;;7.23;56.55;100455.05;109086;1259;66427;-72
2023/03/17 09:03:08;;;;;;;16.40;9.20;;;;;;;7.71;54.39;100456.83;109076;1260;72844;-71
2023/03/17 09:05:56;;;;;;;18.90;8.90;;;;;;;8.48;52.11;100440.68;109053;1259;57444;-72
2023/03/17 09:08:46;;;;;;;14.50;7.20;;;;;;;8.60;51.26;100439.60;109031;1259;58787;-71
2023/03/17 09:11:32;;;;;;;17.20;7.80;;;;;;;8.43;51.09;100441.53;108881;1262;72952;-73
2023/03/17 09:14:19;;;;;;;15.50;8.60;;;;;;;8.07;51.19;100442.52;108834;1262;65813;-72
2023/03/17 09:17:07;;;;;;;17.80;8.50;;;;;;;7.48;52.41;100445.81;108848;1263;71233;-72
2023/03/17 09:19:54;;;;;;;17.20;9.00;;;;;;;6.88;53.94;100444.14;108866;1262;57935;-72
2023/03/17 09:22:41;;;;;;;15.30;8.00;;;;;;;6.37;55.82;100448.34;108888;1263;59626;-74
2023/03/17 09:25:27;;;;;;;14.60;8.10;;;;;;;6.21;56.93;100446.00;108860;1263;71763;-73
2023/03/17 09:28:14;;;;;;;14.90;7.70;;;;;;;5.95;57.73;100448.75;108798;1262;66340;-73
2023/03/17 09:31:10;;;;;;;17.60;8.80;;;;;;;5.75;58.52;100447.68;108756;1263;71424;-74
2023/03/17 09:33:57;;;;;;;17.10;9.40;;;;;;;5.66;59.40;100451.31;108758;1262;57508;-73
2023/03/17 09:36:43;;;;;;;16.70;8.00;;;;;;;5.70;59.73;100451.13;108817;1263;60097;-73
2023/03/17 09:39:30;;;;;;;16.90;8.70;;;;;;;5.78;59.83;100448.58;108806;1262;72876;-72
2023/03/17 09:42:25;;;;;;;19.50;8.00;;;;;;;5.96;59.70;100451.75;108865;1263;68138;-70
2023/03/17 09:45:18;;;;;;;20.60;9.70;;;;;;;5.92;59.73;100448.55;108723;1263;73754;-72
2023/03/17 09:48:43;;;;;;;15.80;7.90;;;;;;;5.92;59.71;100449.95;108881;1260;57339;-71
2023/03/17 09:51:31;;;;;;;15.10;7.50;;;;;;;5.79;59.77;100443.96;108982;1260;59954;-75
2023/03/17 09:54:27;;;;;;;15.70;8.70;;;;;;;5.80;60.01;100430.52;109026;1259;72770;-74
2023/03/17 09:57:34;;;;;;;15.40;7.90;;;;;;;6.44;58.43;100413.80;109044;1259;66926;-71
2023/03/17 10:00:28;;;;;;;17.30;9.00;;;;;;;7.23;56.74;100407.19;109004;1259;72763;-72
2023/03/17 10:03:15;;;;;;;17.70;9.10;;;;;;;7.87;54.25;100413.48;108990;1260;57444;-74
2023/03/17 10:06:16;;;;;;;17.20;8.80;;;;;;;8.42;52.95;100408.74;108991;1259;58868;-74
2023/03/17 10:09:21;;;;;;;19.40;8.70;;;;;;;9.03;51.77;100394.90;109006;1259;72880;-70
2023/03/17 10:12:22;;;;;;;14.40;7.70;;;;;;;9.26;50.08;100386.64;109076;1259;66735;-74
2023/03/17 10:15:37;;;;;;;18.80;9.60;;;;;;;9.27;49.90;100375.60;109009;1260;71242;-73
2023/03/17 10:18:31;;;;;;;17.80;9.00;;;;;;;9.17;49.82;100369.54;108948;1261;58125;-74
2023/03/17 10:21:29;;;;;;;17.90;8.40;;;;;;;9.02;49.83;100347.73;108972;1260;59932;-75
2023/03/17 10:24:15;;;;;;;15.50;7.90;;;;;;;8.82;50.33;100335.20;108983;1260;72869;-76
2023/03/17 10:27:06;;;;;;;18.70;9.50;;;;;;;8.82;50.79;100330.43;109034;1260;66319;-75
2023/03/17 10:29:53;;;;;;;16.70;8.50;;;;;;;8.80;50.78;100338.71;108887;1260;72055;-75
2023/03/17 10:32:39;;;;;;;14.50;8.00;;;;;;;8.77;50.28;100336.63;108983;1260;57457;-73
2023/03/17 10:35:29;;;;;;;16.80;8.20;;;;;;;8.55;50.42;100333.61;109030;1260;60148;-75
2023/03/17 10:38:23;;;;;;;20.10;8.10;;;;;;;8.56;50.23;100325.61;109041;1259;73319;-74
2023/03/17 10:41:15;;;;;;;14.70;7.60;;;;;;;8.13;50.62;100323.02;109078;1260;67752;-74
2023/03/17 10:44:20;;;;;;;16.30;8.70;;;;;;;7.90;50.56;100332.05;109098;1260;72497;-74
2023/03/17 10:47:48;;;;;;;13.60;7.30;;;;;;;7.81;50.94;100316.85;109042;1260;57355;-73
2023/03/17 10:50:39;;;;;;;16.10;6.80;;;;;;;7.75;50.64;100323.95;108987;1261;59173;-75
2023/03/17 10:53:26;;;;;;;15.80;7.20;;;;;;;7.61;50.99;100313.86;109027;1259;74195;-74
2023/03/17 10:56:29;;;;;;;15.60;6.50;;;;;;;7.59;51.33;100316.61;108981;1259;66318;-75
2023/03/17 10:59:31;;;;;;;15.30;7.40;;;;;;;7.53;51.29;100312.93;108971;1260;71046;-77
2023/03/17 11:02:27;;;;;;;15.50;7.90;;;;;;;7.38;51.36;100311.22;108974;1259;57797;-72
2023/03/17 11:05:26;;;;;;;15.20;6.70;;;;;;;7.32;51.93;100300.44;108939;1259;59083;-77
2023/03/17 11:08:18;;;;;;;16.40;6.60;;;;;;;7.38;51.62;100305.77;108978;1260;73813;-74
2023/03/17 11:11:20;;;;;;;18.80;7.50;;;;;;;7.27;51.44;100303.55;108980;1259;67660;-74
2023/03/17 11:14:18;;;;;;;16.10;7.80;;;;;;;7.25;51.49;100298.36;109012;1260;72457;-74
2023/03/17 11:17:45;;;;;;;15.50;6.40;;;;;;;7.02;51.10;100293.04;108783;1262;57455;-74
2023/03/17 11:21:00;;;;;;;14.50;7.40;;;;;;;7.02;51.52;100295.90;108825;1262;59490;-75
2023/03/17 11:24:16;;;;;;;12.10;6.30;;;;;;;7.20;50.93;100289.11;108770;1263;73886;-74
2023/03/17 11:27:32;;;;;;;16.60;7.30;;;;;;;7.41;50.01;100279.09;108828;1263;68831;-73
2023/03/17 11:30:34;;;;;;;15.90;7.10;;;;;;;7.64;49.53;100275.16;108902;1262;72850;-74
2023/03/17 11:33:33;;;;;;;16.70;7.80;;;;;;;8.02;48.80;100272.45;108837;1263;57335;-75
2023/03/17 11:37:03;;;;;;;15.90;7.10;;;;;;;8.47;47.83;100264.30;108825;1263;58819;-74
2023/03/17 11:40:27;;;;;;;15.30;6.50;;;;;;;8.63;46.06;100260.09;108810;1263;72914;-74
2023/03/17 11:43:45;;;;;;;14.50;6.70;;;;;;;8.65;44.99;100270.71;108900;1262;66560;-73
2023/03/17 11:47:35;;;;;;;13.90;6.30;;;;;;;8.73;45.07;100278.88;108874;1263;72268;-74
2023/03/17 11:50:38;;;;;;;12.20;5.80;;;;;;;9.03;44.63;100280.36;108837;1260;183188;-72
2023/03/17 11:54:01;;;;;;;16.30;6.80;;;;;;;9.11;44.09;100275.08;108932;1260;60406;-73
2023/03/17 11:57:03;;;;;;;14.50;6.20;;;;;;;9.10;43.29;100285.74;108963;1260;71799;-75
2023/03/17 11:59:57;;;;;;;13.10;5.90;;;;;;;9.17;43.31;100271.09;108893;1260;67583;-75
2023/03/17 12:02:58;;;;;;;14.90;6.80;;;;;;;9.23;42.50;100271.75;108994;1260;71060;-74
2023/03/17 12:05:50;;;;;;;13.70;5.90;;;;;;;9.17;42.37;100267.02;108862;1260;57369;-73
2023/03/17 12:08:45;;;;;;;14.90;6.40;;;;;;;9.26;42.49;100260.40;108970;1261;60329;-77
2023/03/17 12:11:37;;;;;;;14.40;5.80;;;;;;;9.36;42.30;100261.98;108986;1260;73080;-74
2023/03/17 12:14:56;;;;;;;13.50;5.50;;;;;;;9.19;41.65;100269.21;108956;1260;67786;-74
2023/03/17 12:18:14;;;;;;;12.00;5.50;;;;;;;9.30;41.95;100270.27;108980;1260;72634;-73
2023/03/17 12:21:17;;;;;;;14.30;6.40;;;;;;;9.15;42.78;100259.94;108986;1260;57971;-75
2023/03/17 12:24:35;;;;;;;12.30;5.50;;;;;;;9.02;42.32;100257.79;109017;1259;60104;-74
2023/03/17 12:27:54;;;;;;;13.10;6.00;;;;;;;8.99;42.22;100256.79;109052;1260;72889;-72
2023/03/17 12:31:11;;;;;;;15.10;5.80;;;;;;;8.76;42.13;100260.23;108995;1260;67293;-74
2023/03/17 12:34:25;;;;;;;13.30;5.90;;;;;;;8.70;42.55;100261.36;109049;1261;72586;-74
2023/03/17 12:37:14;;;;;;;16.00;6.60;;;;;;;8.59;42.85;100259.63;108619;1260;1002859;-75
2023/03/17 12:40:15;;;;;;;14.30;6.40;;;;;;;8.60;43.65;100257.28;108883;1260;61193;-74
2023/03/17 12:43:45;;;;;;;13.10;6.30;;;;;;;8.56;43.61;100250.10;108989;1260;72845;-74
2023/03/17 12:46:47;;;;;;;14.50;6.60;;;;;;;8.57;43.79;100258.52;109020;1260;66390;-74
2023/03/17 12:49:56;;;;;;;18.20;7.10;;;;;;;8.43;43.32;100252.00;108934;1259;72721;-76
2023/03/17 12:53:04;;;;;;;16.60;7.10;;;;;;;8.46;43.98;100240.45;109040;1260;57393;-75
2023/03/17 12:55:54;;;;;;;14.00;7.00;;;;;;;8.56;44.32;100238.77;109028;1259;61590;-73
2023/03/17 12:58:48;;;;;;;16.00;6.80;;;;;;;8.70;43.58;100233.45;108979;1260;72529;-76
2023/03/17 13:01:43;;;;;;;18.20;7.40;;;;;;;8.73;42.93;100230.23;108902;1260;68183;-74